Time;durP1;ratioP1;P1;durP2;ratioP2;P2;SDS_P1;SDS_P2;PMS_P1;PMS_P2;Temp;Humidity;BMP_temperature;BMP_pressure;BME280_temperature;BME280_humidity;BME280_pressure;Samples;Min_cycle;Max_cycle;Signal;HPM_P1;HPM_P2
2022/12/21 00:02:06;;;;;;;8.32;2.50;;;12.50;99.90;;;;;;5051001;28;20414;-69
2022/12/21 00:04:32;;;;;;;11.10;2.35;;;12.50;99.90;;;;;;5052819;28;20068;-68
2022/12/21 00:06:57;;;;;;;12.15;2.10;;;12.40;99.90;;;;;;5052503;28;20032;-69
2022/12/21 00:09:23;;;;;;;8.32;2.40;;;12.40;99.90;;;;;;5052445;28;20163;-69
2022/12/21 00:11:49;;;;;;;11.15;8.00;;;12.30;99.90;;;;;;5051826;28;20091;-69
2022/12/21 00:14:15;;;;;;;9.88;2.97;;;12.30;99.90;;;;;;5052398;28;20060;-68
2022/12/21 00:16:42;;;;;;;12.45;2.40;;;12.20;99.90;;;;;;5052216;28;20374;-68
2022/12/21 00:19:07;;;;;;;11.88;2.28;;;12.20;99.90;;;;;;5052373;28;20033;-68
2022/12/21 00:21:36;;;;;;;14.23;2.45;;;12.20;99.90;;;;;;5052674;28;20116;-68
2022/12/21 00:24:03;;;;;;;8.45;2.35;;;12.20;99.90;;;;;;5052346;28;20025;-68
2022/12/21 00:26:33;;;;;;;12.75;2.85;;;12.10;99.90;;;;;;5050991;28;20037;-68
2022/12/21 00:28:59;;;;;;;11.52;2.63;;;12.00;99.90;;;;;;5052061;28;20486;-68
2022/12/21 00:31:27;;;;;;;13.00;2.83;;;12.00;99.90;;;;;;5052727;28;20060;-68
2022/12/21 00:33:54;;;;;;;12.70;2.70;;;12.00;99.90;;;;;;5051892;28;20563;-69
2022/12/21 00:36:21;;;;;;;16.60;3.10;;;11.90;99.90;;;;;;5052153;28;20383;-69
2022/12/21 00:38:47;;;;;;;19.88;3.22;;;11.90;99.90;;;;;;5051911;28;20025;-69
2022/12/21 00:41:15;;;;;;;16.15;3.83;;;11.90;99.90;;;;;;5051688;28;20021;-69
2022/12/21 00:43:43;;;;;;;14.48;4.20;;;11.80;99.90;;;;;;5052065;28;20021;-69
2022/12/21 00:46:16;;;;;;;18.90;4.35;;;11.70;99.90;;;;;;5051853;28;20521;-69
2022/12/21 00:48:41;;;;;;;17.67;4.22;;;11.70;99.90;;;;;;5051865;28;20025;-69
2022/12/21 00:51:09;;;;;;;16.77;3.35;;;11.60;99.90;;;;;;5052323;28;20116;-69
2022/12/21 00:53:36;;;;;;;14.65;3.33;;;11.50;99.90;;;;;;5051858;28;20398;-69
2022/12/21 00:56:04;;;;;;;14.73;3.90;;;11.50;99.90;;;;;;5051554;28;20501;-69
2022/12/21 00:58:30;;;;;;;17.83;3.55;;;11.60;99.90;;;;;;5051935;28;20106;-69
2022/12/21 01:00:58;;;;;;;19.98;3.45;;;11.60;99.90;;;;;;5052372;28;20410;-69
2022/12/21 01:03:24;;;;;;;19.38;3.50;;;11.50;99.90;;;;;;5051844;28;20040;-69
2022/12/21 01:05:51;;;;;;;17.15;3.00;;;11.30;99.90;;;;;;5051834;28;20021;-69
2022/12/21 01:08:19;;;;;;;16.55;3.25;;;11.20;99.90;;;;;;5051611;28;20461;-69
2022/12/21 01:10:45;;;;;;;23.38;3.58;;;11.30;99.90;;;;;;5051140;28;20068;-69
2022/12/21 01:13:12;;;;;;;16.08;3.17;;;11.20;99.90;;;;;;5052093;28;20046;-69
2022/12/21 01:15:46;;;;;;;17.52;3.45;;;11.10;99.90;;;;;;5051770;28;20032;-69
2022/12/21 01:18:13;;;;;;;17.45;3.13;;;11.20;99.90;;;;;;5051593;28;20123;-69
2022/12/21 01:20:50;;;;;;;17.17;3.30;;;11.00;99.90;;;;;;5051488;28;20432;-69
2022/12/21 01:23:16;;;;;;;20.13;3.75;;;11.00;99.90;;;;;;5051694;28;20122;-69
2022/12/21 01:25:43;;;;;;;15.18;3.53;;;10.90;99.90;;;;;;5051811;28;20032;-69
2022/12/21 01:28:09;;;;;;;13.20;3.05;;;10.80;99.90;;;;;;5051284;28;20086;-69
2022/12/21 01:30:35;;;;;;;19.88;3.22;;;10.80;99.90;;;;;;5051648;28;20028;-69
2022/12/21 01:33:01;;;;;;;23.33;3.45;;;10.80;99.90;;;;;;5051535;28;20095;-70
2022/12/21 01:35:27;;;;;;;24.63;3.90;;;10.90;99.90;;;;;;5051480;28;20044;-69
2022/12/21 01:37:52;;;;;;;15.70;3.40;;;10.90;99.90;;;;;;5052336;28;20036;-70
2022/12/21 01:40:18;;;;;;;18.27;3.53;;;10.90;99.90;;;;;;5055353;28;20052;-69
2022/12/21 01:42:44;;;;;;;13.75;3.53;;;10.70;99.90;;;;;;5055671;28;20035;-69
2022/12/21 01:45:30;;;;;;;22.13;3.70;;;10.70;99.90;;;;;;5055109;28;20474;-69
2022/12/21 01:47:59;;;;;;;25.17;3.85;;;10.70;99.90;;;;;;5055274;28;20024;-69
2022/12/21 01:50:28;;;;;;;12.05;3.33;;;10.70;99.90;;;;;;5055475;28;20045;-69
2022/12/21 01:52:57;;;;;;;21.60;3.70;;;10.60;99.90;;;;;;5054943;28;20037;-69
2022/12/21 01:55:24;;;;;;;21.15;3.40;;;10.40;99.90;;;;;;5055346;28;20096;-69
2022/12/21 01:57:50;;;;;;;20.83;3.70;;;10.30;99.90;;;;;;5054924;28;20029;-69
2022/12/21 02:00:16;;;;;;;22.08;3.92;;;10.20;99.90;;;;;;5054991;28;20021;-69
2022/12/21 02:02:51;;;;;;;14.05;3.45;;;10.20;99.90;;;;;;5053499;28;20033;-70
2022/12/21 02:05:32;;;;;;;18.42;3.83;;;10.00;99.90;;;;;;5054610;28;20079;-69
2022/12/21 02:07:59;;;;;;;41.75;3.75;;;10.00;99.90;;;;;;5054711;28;20017;-69
2022/12/21 02:10:25;;;;;;;16.60;3.38;;;10.00;99.90;;;;;;5054443;28;20048;-69
2022/12/21 02:12:58;;;;;;;18.23;3.28;;;10.00;99.90;;;;;;5054572;28;20032;-69
2022/12/21 02:15:51;;;;;;;43.30;4.35;;;9.80;99.90;;;;;;5054721;28;20025;-70
2022/12/21 02:18:34;;;;;;;43.75;7.40;;;9.70;99.90;;;;;;5049098;28;20055;-69
2022/12/21 02:21:14;;;;;;;84.20;15.45;;;9.70;99.90;;;;;;5055178;28;20080;-70
2022/12/21 02:23:40;;;;;;;122.03;21.02;;;9.70;99.90;;;;;;5054617;28;20035;-70
2022/12/21 02:26:17;;;;;;;50.05;13.57;;;9.70;99.90;;;;;;5054418;28;20104;-70
2022/12/21 02:29:02;;;;;;;63.03;7.75;;;9.80;99.90;;;;;;5054243;28;20047;-70
2022/12/21 02:32:07;;;;;;;96.53;8.80;;;9.70;99.90;;;;;;5054365;28;20082;-70
2022/12/21 02:34:55;;;;;;;51.35;7.53;;;9.90;99.90;;;;;;5054496;28;20036;-70
2022/12/21 02:37:50;;;;;;;84.57;8.02;;;9.80;99.90;;;;;;5054400;28;20028;-70
2022/12/21 02:40:37;;;;;;;67.28;6.95;;;10.00;99.90;;;;;;5054559;28;20385;-70
2022/12/21 02:46:25;;;;;;;94.57;8.20;;;9.90;99.90;;;;;;5054295;28;20031;-70
2022/12/21 02:49:22;;;;;;;96.95;8.38;;;10.10;99.90;;;;;;5053449;28;20054;-70
2022/12/21 02:52:09;;;;;;;82.10;9.77;;;10.00;99.90;;;;;;5031311;28;20034;-70
2022/12/21 02:54:38;;;;;;;51.13;7.97;;;10.00;99.90;;;;;;5031743;28;20041;-69
2022/12/21 02:57:04;;;;;;;101.18;9.85;;;10.00;99.90;;;;;;5032281;28;20029;-69
2022/12/21 02:59:37;;;;;;;80.72;8.68;;;9.80;99.90;;;;;;5031704;28;20040;-70
2022/12/21 03:02:44;;;;;;;36.22;7.72;;;9.70;99.90;;;;;;5031559;28;20037;-70
2022/12/21 03:05:24;;;;;;;49.13;8.23;;;9.50;99.90;;;;;;5031154;28;20057;-70
2022/12/21 03:08:04;;;;;;;45.22;8.70;;;9.40;99.90;;;;;;5031927;28;20040;-70
2022/12/21 03:10:34;;;;;;;81.03;9.90;;;9.30;99.90;;;;;;5031199;28;20053;-69
2022/12/21 03:13:14;;;;;;;87.63;9.55;;;9.50;99.90;;;;;;5031264;28;20038;-69
2022/12/21 03:15:46;;;;;;;134.55;9.23;;;9.50;99.90;;;;;;5031298;28;20037;-70
2022/12/21 03:18:21;;;;;;;159.73;82.03;;;9.80;99.90;;;;;;5031175;28;20116;-69
2022/12/21 03:21:02;;;;;;;216.85;31.63;;;9.90;99.90;;;;;;5030993;28;20064;-69
2022/12/21 03:23:38;;;;;;;195.85;30.13;;;9.90;99.90;;;;;;5015633;28;20108;-69
2022/12/21 03:26:07;;;;;;;158.98;22.35;;;9.90;99.90;;;;;;5031188;28;20029;-69
2022/12/21 03:28:36;;;;;;;124.22;13.88;;;9.90;99.90;;;;;;5032030;28;20124;-70
2022/12/21 03:31:07;;;;;;;69.97;6.43;;;9.90;99.90;;;;;;5033391;28;20021;-69
2022/12/21 03:33:43;;;;;;;108.63;8.88;;;9.80;99.90;;;;;;5032857;28;20037;-67
2022/12/21 03:36:39;;;;;;;74.20;6.85;;;9.80;99.90;;;;;;5033189;28;20025;-69
2022/12/21 03:39:13;;;;;;;81.00;8.30;;;9.90;99.90;;;;;;5032097;28;20146;-69
2022/12/21 03:41:55;;;;;;;57.80;6.30;;;9.80;99.90;;;;;;5033089;28;20073;-69
2022/12/21 03:44:31;;;;;;;58.28;6.45;;;9.70;99.90;;;;;;5033518;28;20094;-69
2022/12/21 03:47:01;;;;;;;59.85;7.35;;;9.80;99.90;;;;;;5033011;28;20029;-69
2022/12/21 03:49:41;;;;;;;45.47;6.25;;;9.80;99.90;;;;;;5032587;28;20025;-69
2022/12/21 03:52:16;;;;;;;39.13;5.65;;;9.70;99.90;;;;;;5033093;28;20061;-69
2022/12/21 03:54:44;;;;;;;50.03;4.90;;;9.60;99.90;;;;;;5033147;28;20044;-69
2022/12/21 03:57:11;;;;;;;38.35;5.28;;;9.60;99.90;;;;;;5032887;28;20033;-69
2022/12/21 03:59:42;;;;;;;28.45;5.13;;;9.70;99.90;;;;;;5032941;28;20500;-69
2022/12/21 04:02:18;;;;;;;38.20;5.22;;;9.80;99.90;;;;;;5032879;28;20435;-69
2022/12/21 04:05:27;;;;;;;45.42;5.22;;;9.80;99.90;;;;;;5032665;28;20029;-70
2022/12/21 04:07:54;;;;;;;76.75;6.18;;;9.70;99.90;;;;;;5010507;28;20069;-69
2022/12/21 04:10:22;;;;;;;63.10;4.80;;;9.70;99.90;;;;;;5017550;28;20041;-69
2022/12/21 04:12:47;;;;;;;72.10;5.90;;;9.80;99.90;;;;;;5030334;28;20607;-69
2022/12/21 04:15:23;;;;;;;83.63;5.63;;;9.80;99.90;;;;;;5030031;28;20049;-69
2022/12/21 04:17:51;;;;;;;56.20;5.20;;;9.90;99.90;;;;;;5030382;28;20025;-69
2022/12/21 04:20:22;;;;;;;57.63;5.07;;;9.90;99.90;;;;;;5030268;28;20022;-69
2022/12/21 04:28:25;;;;;;;35.20;5.20;;;10.00;99.90;;;;;;5030362;28;20096;-70
2022/12/21 04:30:51;;;;;;;45.70;5.43;;;10.00;99.90;;;;;;5029945;28;20383;-70
2022/12/21 04:33:20;;;;;;;46.63;4.65;;;10.10;99.90;;;;;;5029656;28;20087;-69
2022/12/21 04:38:34;;;;;;;42.78;4.13;;;10.10;99.90;;;;;;5030274;28;20433;-69
2022/12/21 04:41:00;;;;;;;45.58;6.40;;;10.20;99.90;;;;;;5030490;28;20409;-69
2022/12/21 04:43:25;;;;;;;34.53;5.10;;;10.20;99.90;;;;;;5032706;28;20095;-69
2022/12/21 04:46:04;;;;;;;52.28;6.75;;;10.20;99.90;;;;;;5031786;28;20088;-68
2022/12/21 04:48:30;;;;;;;38.55;5.88;;;10.20;99.90;;;;;;5032290;28;20037;-69
2022/12/21 04:50:56;;;;;;;40.92;6.28;;;10.10;99.90;;;;;;5032543;28;20033;-69
2022/12/21 04:53:22;;;;;;;47.00;6.43;;;10.10;99.90;;;;;;5032034;28;20564;-69
2022/12/21 04:55:48;;;;;;;46.20;5.05;;;10.00;99.90;;;;;;5031927;28;20021;-69
2022/12/21 04:58:14;;;;;;;34.20;4.68;;;10.00;99.90;;;;;;5031483;28;20040;-69
2022/12/21 05:00:39;;;;;;;43.47;5.68;;;10.10;99.90;;;;;;5031535;28;20013;-69
2022/12/21 05:03:05;;;;;;;96.82;6.20;;;9.90;99.90;;;;;;5032137;28;20036;-69
2022/12/21 05:05:31;;;;;;;45.45;4.70;;;10.00;99.90;;;;;;5031646;28;20037;-69
2022/12/21 05:07:57;;;;;;;43.47;5.22;;;10.00;99.90;;;;;;5031825;28;20040;-69
2022/12/21 05:10:22;;;;;;;50.95;5.70;;;10.00;99.90;;;;;;5039075;28;20124;-69
2022/12/21 05:12:48;;;;;;;23.80;5.85;;;9.90;99.90;;;;;;5053090;28;20033;-70
2022/12/21 05:15:16;;;;;;;14.90;6.15;;;10.00;99.90;;;;;;5055480;28;20021;-69
2022/12/21 05:17:42;;;;;;;15.32;5.50;;;10.00;99.90;;;;;;5055570;28;20477;-69
2022/12/21 05:20:09;;;;;;;14.20;5.47;;;10.00;99.90;;;;;;5055730;28;20028;-69
2022/12/21 05:22:35;;;;;;;23.60;6.80;;;9.90;99.90;;;;;;5055968;28;20078;-70
2022/12/21 05:25:01;;;;;;;22.05;6.93;;;10.00;99.90;;;;;;5055711;28;20420;-69
2022/12/21 05:27:27;;;;;;;17.70;5.40;;;9.90;99.90;;;;;;5055456;28;20040;-69
2022/12/21 05:29:52;;;;;;;22.05;6.10;;;10.00;99.90;;;;;;5055114;28;20063;-69
2022/12/21 05:32:18;;;;;;;20.92;5.47;;;9.90;99.90;;;;;;5055445;28;20029;-69
2022/12/21 05:34:44;;;;;;;18.63;5.18;;;9.90;99.90;;;;;;5055426;28;20036;-69
2022/12/21 05:37:10;;;;;;;12.88;4.85;;;9.90;99.90;;;;;;5055403;28;20104;-70
2022/12/21 05:39:35;;;;;;;17.13;5.47;;;9.60;99.90;;;;;;5055434;28;20543;-69
2022/12/21 05:42:02;;;;;;;15.43;5.40;;;9.80;99.90;;;;;;5055112;28;20020;-69
2022/12/21 05:44:28;;;;;;;23.70;6.00;;;9.80;99.90;;;;;;5054348;28;20381;-69
2022/12/21 05:46:54;;;;;;;15.45;5.60;;;9.70;99.90;;;;;;5055465;28;20033;-69
2022/12/21 05:49:19;;;;;;;20.42;6.28;;;9.90;99.90;;;;;;5054839;28;20029;-70
2022/12/21 05:51:49;;;;;;;16.50;6.40;;;9.80;99.90;;;;;;5054550;28;20029;-69
2022/12/21 05:54:15;;;;;;;20.02;6.85;;;9.80;99.90;;;;;;5055021;28;20037;-70
2022/12/21 05:56:42;;;;;;;17.70;6.00;;;9.60;99.90;;;;;;5055457;28;20026;-69
2022/12/21 05:59:08;;;;;;;14.52;5.80;;;9.70;99.90;;;;;;5054417;28;20073;-69
2022/12/21 06:01:34;;;;;;;18.20;6.40;;;9.60;99.90;;;;;;5055009;28;20029;-68
2022/12/21 06:03:59;;;;;;;20.15;7.10;;;9.50;99.90;;;;;;5055165;28;20025;-68
2022/12/21 06:06:25;;;;;;;16.98;5.47;;;9.40;99.90;;;;;;5054946;28;20479;-68
2022/12/21 06:08:51;;;;;;;13.48;5.30;;;9.20;99.90;;;;;;5054075;28;20044;-69
2022/12/21 06:11:23;;;;;;;12.80;4.63;;;9.30;99.90;;;;;;5054666;28;20396;-69
2022/12/21 06:13:50;;;;;;;19.40;6.80;;;9.00;99.90;;;;;;5054225;28;20049;-69
2022/12/21 06:16:25;;;;;;;16.27;6.72;;;9.10;99.90;;;;;;5054518;28;20025;-68
2022/12/21 06:18:52;;;;;;;17.42;6.50;;;9.20;99.90;;;;;;5053996;28;20033;-68
2022/12/21 06:21:18;;;;;;;18.13;5.47;;;9.30;99.90;;;;;;5054275;28;20032;-68
2022/12/21 06:23:45;;;;;;;21.55;6.45;;;9.30;99.90;;;;;;5053729;28;20485;-69
2022/12/21 06:26:14;;;;;;;14.02;4.93;;;9.30;99.90;;;;;;5053877;28;20024;-69
2022/12/21 06:28:40;;;;;;;16.25;5.80;;;9.40;99.90;;;;;;5054329;28;20032;-69
2022/12/21 06:31:09;;;;;;;16.42;5.88;;;9.30;99.90;;;;;;5054407;28;20017;-69
2022/12/21 06:33:35;;;;;;;16.25;6.28;;;9.20;99.90;;;;;;5054332;28;20581;-69
2022/12/21 06:36:01;;;;;;;22.70;6.18;;;9.30;99.90;;;;;;5054274;28;20101;-69
2022/12/21 06:38:28;;;;;;;15.07;6.15;;;9.40;99.90;;;;;;5054401;28;20103;-69
2022/12/21 06:40:59;;;;;;;17.20;6.28;;;9.50;99.90;;;;;;5054606;28;20013;-69
2022/12/21 06:43:26;;;;;;;11.93;5.20;;;9.50;99.90;;;;;;5053796;28;20071;-69
2022/12/21 06:45:53;;;;;;;12.25;4.93;;;9.60;99.90;;;;;;5054131;28;20436;-69
2022/12/21 06:48:19;;;;;;;19.67;5.57;;;9.60;99.90;;;;;;5054230;28;20491;-69
2022/12/21 06:50:44;;;;;;;16.17;5.68;;;9.50;99.90;;;;;;5054429;28;20021;-69
2022/12/21 06:53:10;;;;;;;16.77;6.05;;;9.50;99.90;;;;;;5054020;28;20036;-69
2022/12/21 06:55:36;;;;;;;16.38;5.97;;;9.40;99.90;;;;;;5053901;28;20021;-69
2022/12/21 06:58:01;;;;;;;14.73;6.03;;;9.50;99.90;;;;;;5053601;28;20082;-69
2022/12/21 07:00:27;;;;;;;15.82;6.38;;;9.50;99.90;;;;;;5054014;28;20409;-69
2022/12/21 07:02:55;;;;;;;12.55;6.13;;;9.50;99.90;;;;;;5053802;28;20219;-68
2022/12/21 07:05:21;;;;;;;13.57;6.90;;;9.50;99.90;;;;;;5053625;28;20025;-68
2022/12/21 07:07:46;;;;;;;11.32;5.88;;;9.50;99.90;;;;;;5054057;28;20029;-69
2022/12/21 07:10:12;;;;;;;12.85;6.95;;;9.60;99.90;;;;;;5053329;28;20121;-68
2022/12/21 07:12:38;;;;;;;15.23;6.97;;;9.50;99.90;;;;;;5053204;28;20025;-68
2022/12/21 07:15:04;;;;;;;11.88;6.07;;;9.60;99.90;;;;;;5053606;28;20186;-69
2022/12/21 07:17:29;;;;;;;16.98;6.57;;;9.50;99.90;;;;;;5053299;28;20078;-69
2022/12/21 07:19:55;;;;;;;12.52;6.03;;;9.50;99.90;;;;;;5053382;28;20116;-69
2022/12/21 07:22:21;;;;;;;15.30;5.47;;;9.50;99.90;;;;;;5053600;28;20021;-69
2022/12/21 07:24:47;;;;;;;14.25;5.72;;;9.50;99.90;;;;;;5053604;28;20033;-69
2022/12/21 07:27:12;;;;;;;11.73;6.30;;;9.50;99.90;;;;;;5052878;28;20025;-69
2022/12/21 07:29:38;;;;;;;14.57;6.72;;;9.40;99.90;;;;;;5053231;28;20039;-69
2022/12/21 07:32:04;;;;;;;13.63;7.13;;;9.40;99.90;;;;;;5053337;28;20021;-69
2022/12/21 07:34:29;;;;;;;14.65;7.03;;;9.40;99.90;;;;;;5053318;28;20495;-70
2022/12/21 07:36:55;;;;;;;11.80;5.70;;;9.60;99.90;;;;;;5052618;28;20021;-69
2022/12/21 07:39:21;;;;;;;9.98;4.47;;;9.70;99.90;;;;;;5053007;28;20025;-69
2022/12/21 07:41:46;;;;;;;10.00;5.10;;;9.70;99.90;;;;;;5052007;28;20389;-69
2022/12/21 07:44:12;;;;;;;9.40;4.75;;;9.80;99.90;;;;;;5052990;28;20033;-65
2022/12/21 07:46:38;;;;;;;10.25;4.85;;;9.80;99.90;;;;;;5052848;28;20091;-63
2022/12/21 07:49:04;;;;;;;7.38;4.18;;;9.70;99.90;;;;;;5052976;28;20406;-64
2022/12/21 07:51:29;;;;;;;11.65;4.80;;;9.70;99.90;;;;;;5052849;28;20064;-64
2022/12/21 07:53:55;;;;;;;11.10;4.68;;;9.80;99.90;;;;;;5052682;28;20421;-64
2022/12/21 07:56:21;;;;;;;9.85;4.47;;;9.80;99.90;;;;;;5052689;28;20100;-64
2022/12/21 07:58:46;;;;;;;9.45;4.07;;;9.80;99.90;;;;;;5052659;28;20028;-65
2022/12/21 08:01:17;;;;;;;8.63;4.50;;;9.90;99.90;;;;;;5052391;28;20074;-64
2022/12/21 08:03:47;;;;;;;9.95;4.97;;;9.90;99.90;;;;;;5043241;28;20078;-64
2022/12/21 08:06:13;;;;;;;14.85;5.53;;;9.90;99.90;;;;;;5050921;28;20021;-65
2022/12/21 08:08:40;;;;;;;8.52;5.05;;;9.90;99.90;;;;;;5048108;28;20029;-63
2022/12/21 08:11:16;;;;;;;9.63;5.43;;;9.80;99.90;;;;;;5046788;28;20037;-64
2022/12/21 08:13:43;;;;;;;12.55;4.68;;;9.90;99.90;;;;;;5052177;28;20540;-64
2022/12/21 08:16:13;;;;;;;10.95;4.85;;;9.90;99.90;;;;;;5051944;28;20497;-62
2022/12/21 08:18:38;;;;;;;8.90;4.50;;;9.90;99.90;;;;;;5052053;28;20108;-64
2022/12/21 08:21:05;;;;;;;10.32;4.50;;;9.80;99.90;;;;;;5052062;28;20052;-64
2022/12/21 08:23:30;;;;;;;7.00;4.30;;;10.00;99.90;;;;;;5052449;28;20023;-64
2022/12/21 08:26:04;;;;;;;13.18;5.50;;;10.10;99.90;;;;;;5051911;28;20033;-65
2022/12/21 08:28:30;;;;;;;9.15;4.32;;;10.20;99.90;;;;;;5052068;28;20025;-65
2022/12/21 08:31:04;;;;;;;8.50;4.55;;;10.40;99.90;;;;;;5052618;28;20481;-64
2022/12/21 08:33:30;;;;;;;6.03;4.88;;;10.80;99.90;;;;;;5030987;28;20068;-64
2022/12/21 08:35:56;;;;;;;10.55;5.20;;;10.90;99.90;;;;;;5032057;28;20029;-63
2022/12/21 08:38:22;;;;;;;8.45;5.15;;;11.00;99.90;;;;;;5031825;28;20057;-64
2022/12/21 08:40:48;;;;;;;9.75;5.55;;;10.90;99.90;;;;;;5032044;28;20060;-64
2022/12/21 08:43:14;;;;;;;7.75;5.10;;;11.00;99.90;;;;;;5032155;28;20087;-64
2022/12/21 08:45:39;;;;;;;7.32;5.05;;;11.10;99.90;;;;;;5032505;28;20500;-64
2022/12/21 08:48:05;;;;;;;5.50;4.50;;;11.10;99.90;;;;;;5031357;28;20125;-64
2022/12/21 08:50:31;;;;;;;7.00;4.60;;;10.90;99.90;;;;;;5031677;28;20794;-64
2022/12/21 08:52:57;;;;;;;5.78;4.15;;;10.70;99.90;;;;;;5032563;28;20057;-64
2022/12/21 08:55:23;;;;;;;7.30;4.95;;;10.60;99.90;;;;;;5031916;28;20037;-64
2022/12/21 08:57:48;;;;;;;6.40;4.97;;;10.70;99.90;;;;;;5032145;28;20104;-64
2022/12/21 09:00:14;;;;;;;6.60;5.03;;;10.70;99.90;;;;;;5032103;28;20021;-64
2022/12/21 09:02:40;;;;;;;6.88;4.03;;;12.20;99.90;;;;;;5032449;28;20490;-64
2022/12/21 09:05:06;;;;;;;6.18;3.97;;;14.30;99.90;;;;;;5032128;28;20030;-64
2022/12/21 09:07:32;;;;;;;4.28;3.40;;;16.00;99.90;;;;;;5039146;28;20033;-64
2022/12/21 09:09:58;;;;;;;4.45;3.45;;;16.30;99.90;;;;;;5051838;28;20056;-64
2022/12/21 09:12:24;;;;;;;6.13;3.20;;;15.70;99.90;;;;;;5052188;28;20048;-64
2022/12/21 09:14:50;;;;;;;6.30;3.45;;;14.10;99.90;;;;;;5051908;28;20025;-64
2022/12/21 09:17:16;;;;;;;4.47;3.60;;;13.00;99.90;;;;;;5051731;28;20090;-64
2022/12/21 09:19:41;;;;;;;5.93;3.70;;;12.80;99.90;;;;;;5051858;28;20489;-64
2022/12/21 09:22:07;;;;;;;6.35;3.50;;;12.50;99.90;;;;;;5051602;28;20075;-64
2022/12/21 09:24:33;;;;;;;7.32;3.80;;;12.30;99.90;;;;;;5051722;28;20021;-64
2022/12/21 09:26:59;;;;;;;4.78;3.83;;;12.30;99.90;;;;;;5051732;28;20029;-64
2022/12/21 09:29:25;;;;;;;4.82;3.88;;;12.20;99.90;;;;;;5051455;28;20040;-64
2022/12/21 09:31:51;;;;;;;4.45;4.00;;;12.20;99.90;;;;;;5051641;28;20099;-64
2022/12/21 09:34:18;;;;;;;5.70;4.05;;;12.20;99.90;;;;;;5051811;28;20186;-64
2022/12/21 09:36:44;;;;;;;5.57;4.18;;;12.10;99.90;;;;;;5051306;28;20384;-64
2022/12/21 09:39:09;;;;;;;6.18;4.28;;;12.10;99.90;;;;;;5051632;28;20104;-64
2022/12/21 09:41:50;;;;;;;7.45;4.45;;;12.20;99.90;;;;;;5051721;28;20116;-64
2022/12/21 09:44:40;;;;;;;5.65;4.38;;;12.40;99.90;;;;;;5051804;28;20025;-64
2022/12/21 09:47:14;;;;;;;6.82;4.47;;;12.80;99.90;;;;;;5051484;28;20033;-64
2022/12/21 09:49:49;;;;;;;6.60;4.65;;;13.10;99.90;;;;;;5051912;28;20104;-64
2022/12/21 09:52:21;;;;;;;6.18;4.68;;;14.30;99.90;;;;;;5051098;28;20076;-64
2022/12/21 09:55:02;;;;;;;5.65;3.88;;;14.60;99.90;;;;;;5051352;28;20059;-64
2022/12/21 09:57:32;;;;;;;5.70;3.90;;;15.00;99.90;;;;;;5051683;28;20036;-64
2022/12/21 09:59:58;;;;;;;5.88;4.05;;;16.00;99.90;;;;;;5054486;28;20100;-64
2022/12/21 10:02:41;;;;;;;7.45;5.18;;;15.30;99.90;;;;;;5054987;28;20507;-64
2022/12/21 10:05:12;;;;;;;6.93;3.88;;;17.60;99.90;;;;;;5054596;28;20090;-64
2022/12/21 10:07:59;;;;;;;4.63;3.35;;;19.30;99.90;;;;;;5054799;28;20032;-64
2022/12/21 10:10:47;;;;;;;5.97;3.13;;;20.10;99.90;;;;;;5054618;28;20068;-64
2022/12/21 10:13:28;;;;;;;6.75;3.58;;;19.90;99.90;;;;;;5054810;28;20462;-64
2022/12/21 10:15:57;;;;;;;4.88;3.78;;;19.70;99.90;;;;;;5055084;28;20027;-65
2022/12/21 10:18:41;;;;;;;6.53;4.00;;;17.50;99.90;;;;;;5054175;28;20041;-65
2022/12/21 10:21:28;;;;;;;7.68;5.80;;;19.10;99.90;;;;;;5054131;28;20035;-65
2022/12/21 10:23:56;;;;;;;8.50;6.78;;;20.20;99.90;;;;;;5054489;28;20396;-64
2022/12/21 10:26:27;;;;;;;11.55;9.10;;;18.80;99.90;;;;;;5054696;28;20100;-65
2022/12/21 10:29:18;;;;;;;12.02;9.48;;;16.70;99.90;;;;;;5054143;28;20036;-65
2022/12/21 10:31:46;;;;;;;13.25;10.52;;;17.50;99.90;;;;;;5053813;28;20029;-65
2022/12/21 10:34:18;;;;;;;12.35;10.93;;;17.10;99.90;;;;;;5053631;28;20460;-66
2022/12/21 10:36:46;;;;;;;15.80;11.83;;;16.50;99.90;;;;;;5054335;28;20023;-64
2022/12/21 10:39:16;;;;;;;13.38;11.38;;;16.30;99.90;;;;;;5054250;28;20316;-65
2022/12/21 10:42:07;;;;;;;14.77;12.57;;;16.30;99.90;;;;;;5054032;28;20017;-65
2022/12/21 10:44:38;;;;;;;15.48;12.82;;;16.20;99.90;;;;;;5053971;28;20397;-64
2022/12/21 10:47:16;;;;;;;15.40;13.40;;;16.10;99.90;;;;;;5054268;28;20033;-65
2022/12/21 10:49:48;;;;;;;17.73;14.88;;;16.70;99.90;;;;;;5052111;28;20033;-65
2022/12/21 10:52:34;;;;;;;17.35;15.52;;;16.40;99.90;;;;;;5053317;28;20499;-66
2022/12/21 10:55:00;;;;;;;19.75;16.77;;;16.50;99.90;;;;;;5053285;28;20432;-65
2022/12/21 10:57:28;;;;;;;20.67;17.48;;;16.20;99.90;;;;;;5052992;28;20420;-65
2022/12/21 10:59:54;;;;;;;20.45;16.98;;;16.40;99.90;;;;;;5052932;28;20112;-65
2022/12/21 11:02:50;;;;;;;20.08;17.23;;;17.70;99.90;;;;;;5053050;28;20020;-65
2022/12/21 11:05:30;;;;;;;18.23;16.30;;;17.70;99.90;;;;;;5048933;28;20505;-65
2022/12/21 11:08:16;;;;;;;18.30;16.40;;;17.50;99.90;;;;;;5053616;28;20482;-65
2022/12/21 11:10:47;;;;;;;18.55;16.58;;;17.50;99.90;;;;;;5052825;28;20044;-65
2022/12/21 11:13:14;;;;;;;17.10;15.30;;;19.40;99.90;;;;;;5053876;28;20033;-64
2022/12/21 11:16:09;;;;;;;16.90;14.95;;;18.20;99.90;;;;;;5053565;28;20520;-64
2022/12/21 11:18:48;;;;;;;17.35;15.57;;;17.70;99.90;;;;;;5052774;28;20033;-64
2022/12/21 11:21:30;;;;;;;17.30;14.50;;;17.60;99.90;;;;;;5052960;28;20029;-62
2022/12/21 11:23:58;;;;;;;16.38;14.68;;;17.70;99.90;;;;;;5053263;28;20035;-63
2022/12/21 11:26:28;;;;;;;16.02;13.90;;;17.90;99.90;;;;;;5053343;28;20043;-63
2022/12/21 11:29:11;;;;;;;15.07;12.82;;;17.90;99.90;;;;;;5053228;28;20033;-63
2022/12/21 11:31:37;;;;;;;14.68;12.20;;;17.40;99.90;;;;;;5053553;28;20776;-61
2022/12/21 11:34:03;;;;;;;13.90;12.30;;;16.90;99.90;;;;;;5052790;28;20033;-63
2022/12/21 11:36:29;;;;;;;14.82;12.50;;;17.30;99.90;;;;;;5053167;28;20112;-63
2022/12/21 11:38:55;;;;;;;10.20;9.10;;;17.10;99.90;;;;;;5053444;28;20025;-61
2022/12/21 11:41:26;;;;;;;10.55;9.45;;;16.90;99.90;;;;;;5053151;28;20064;-62
2022/12/21 11:43:52;;;;;;;13.30;10.30;;;17.00;99.90;;;;;;5053225;28;20032;-61
2022/12/21 11:46:24;;;;;;;9.00;7.03;;;16.90;99.90;;;;;;5052911;28;20418;-62
2022/12/21 11:49:08;;;;;;;9.02;7.25;;;16.90;99.90;;;;;;5052593;28;20036;-63
2022/12/21 11:52:00;;;;;;;8.43;7.03;;;16.90;99.90;;;;;;5053063;28;20029;-62
2022/12/21 11:54:49;;;;;;;7.32;6.30;;;17.20;99.90;;;;;;5052946;28;20401;-63
2022/12/21 11:57:30;;;;;;;7.43;6.15;;;17.50;99.90;;;;;;5052678;28;20036;-63
2022/12/21 12:00:03;;;;;;;6.25;5.25;;;17.80;99.90;;;;;;5052563;28;20516;-62
2022/12/21 12:02:59;;;;;;;6.38;4.88;;;17.50;99.90;;;;;;5052637;28;20099;-62
2022/12/21 12:05:59;;;;;;;5.95;3.40;;;17.20;99.90;;;;;;5030478;28;20092;-63
2022/12/21 12:08:51;;;;;;;4.70;3.42;;;17.20;99.90;;;;;;4985035;28;20099;-63
2022/12/21 12:11:48;;;;;;;4.90;3.50;;;17.40;99.90;;;;;;4971128;28;20082;-64
2022/12/21 12:14:53;;;;;;;2.78;2.50;;;17.50;99.90;;;;;;4971251;28;20061;-63
2022/12/21 12:17:53;;;;;;;4.60;2.60;;;17.70;99.90;;;;;;4971299;28;20129;-63
2022/12/21 12:20:25;;;;;;;4.13;2.50;;;17.80;99.90;;;;;;4952046;28;20039;-63
2022/12/21 12:23:00;;;;;;;6.68;3.85;;;17.90;99.90;;;;;;4952194;28;20040;-63
2022/12/21 12:26:13;;;;;;;4.55;1.80;;;18.60;99.90;;;;;;4952121;28;20101;-64
2022/12/21 12:28:57;;;;;;;3.30;1.70;;;18.30;99.90;;;;;;4958494;28;20042;-63
2022/12/21 12:31:28;;;;;;;;;;;18.50;99.90;;;;;;4971418;28;20062;-63
2022/12/21 12:34:16;;;;;;;3.15;1.67;;;18.80;99.90;;;;;;4971389;28;20291;-64
2022/12/21 12:37:01;;;;;;;33.63;23.02;;;18.90;99.90;;;;;;4971313;28;20035;-64
2022/12/21 12:39:37;;;;;;;5.78;3.13;;;18.80;99.90;;;;;;4971293;28;20039;-64
2022/12/21 12:42:26;;;;;;;4.78;1.80;;;18.90;99.90;;;;;;4971231;28;20510;-64
2022/12/21 12:45:19;;;;;;;320.20;212.98;;;18.90;99.90;;;;;;4974884;28;20030;-63
2022/12/21 12:48:07;;;;;;;10.75;5.95;;;18.70;99.90;;;;;;4990641;28;20388;-64
2022/12/21 12:51:00;;;;;;;2.60;1.40;;;18.90;99.90;;;;;;4990618;28;20446;-64
2022/12/21 12:53:34;;;;;;;24.60;14.95;;;19.00;99.90;;;;;;4990612;28;20045;-64
2022/12/21 12:56:20;;;;;;;5.45;3.35;;;19.20;99.90;;;;;;5000176;28;20029;-64
2022/12/21 12:59:04;;;;;;;3.92;2.20;;;19.10;99.90;;;;;;5009899;28;20473;-64
2022/12/21 13:01:33;;;;;;;;;;;19.10;99.90;;;;;;5010597;28;20149;-64
2022/12/21 13:04:43;;;;;;;63.97;34.08;;;19.10;99.90;;;;;;5010119;28;19913;-64
2022/12/21 13:07:43;;;;;;;3.60;1.83;;;18.70;99.90;;;;;;5004823;28;20124;-64
2022/12/21 13:10:21;;;;;;;11.43;6.18;;;18.80;99.90;;;;;;5029489;28;20111;-64
2022/12/21 13:13:14;;;;;;;9.40;2.38;;;18.70;99.90;;;;;;5029600;28;20116;-64
2022/12/21 13:16:00;;;;;;;169.60;95.72;;;18.60;99.90;;;;;;5029762;28;20034;-63
2022/12/21 13:18:44;;;;;;;8.93;4.78;;;18.60;99.90;;;;;;5029558;28;20038;-64
2022/12/21 13:21:12;;;;;;;4.20;1.77;;;18.60;99.90;;;;;;5029716;28;20028;-63